Tasso Fragoso, Brazil
Current Conditions -  °F | °C
As of 4:00 PM on Saturday 25 Oct 2014 (Local Time) from SBPJ Reporting Station
Scattered Clouds Scattered Clouds  
Wind Chill: 93°   Ceiling: Unl
Heat Index: 94°   Visibility: 6mi
Dew Point: 63°   Wind: 6mph
Humidity: 36%   Direction: 260°W
Pressure: 29.74"   Gusts: NA
Location:  8.48°S, 45.74°W
Report Text: SBPJ 251900Z 26005KT 9999 SCT025 FEW030TCU 34/17 Q1007
Loading
Personal Weather Stations






























Interactive Weather Map
Tropical Storm Tracking
New forecast layout! Learn more

10-Day Weather Forecast

Advertisements
Track Severe Weather on mobile